Time,TemperatureF,DewpointF,PressureIn,WindDirection,WindDirectionDegrees,WindSpeedMPH,WindSpeedGustMPH,Humidity,HourlyPrecipIn,Conditions,Clouds,dailyrainin,SoftwareType,DateUTC
2013-08-19 00:05:00,63.3,58.7,30.10,SW,214,0.0,0.0,85,0.00,,,0.00,Wunderground v.1.15,2013-08-19 05:05:00,
2013-08-19 00:10:00,63.1,58.5,30.10,SW,214,0.0,0.0,85,0.00,,,0.00,Wunderground v.1.15,2013-08-19 05:10:00,
2013-08-19 00:20:00,62.9,59.0,30.10,SW,214,0.0,0.0,87,0.00,,,0.00,Wunderground v.1.15,2013-08-19 05:20:00,
2013-08-19 00:25:00,62.7,59.1,30.10,SW,214,0.0,0.0,88,0.00,,,0.00,Wunderground v.1.15,2013-08-19 05:25:00,
2013-08-19 00:35:00,62.5,59.2,30.10,SW,214,0.0,0.0,89,0.00,,,0.00,Wunderground v.1.15,2013-08-19 05:35:00,
2013-08-19 00:45:00,62.3,59.0,30.10,SW,214,0.0,0.0,89,0.00,,,0.00,Wunderground v.1.15,2013-08-19 05:45:00,
2013-08-19 00:50:00,62.2,58.9,30.09,SW,214,0.0,0.0,89,0.00,,,0.00,Wunderground v.1.15,2013-08-19 05:50:00,
2013-08-19 01:00:00,61.9,58.6,30.09,SW,214,0.0,0.0,89,0.00,,,0.00,Wunderground v.1.15,2013-08-19 06:00:00,
2013-08-19 01:05:00,61.9,58.9,30.09,SW,214,0.0,0.0,90,0.00,,,0.00,Wunderground v.1.15,2013-08-19 06:05:00,
2013-08-19 01:15:00,61.6,58.6,30.09,SW,214,0.0,0.0,90,0.00,,,0.00,Wunderground v.1.15,2013-08-19 06:15:00,
2013-08-19 01:25:00,61.5,58.8,30.09,SW,214,0.0,0.0,91,0.00,,,0.00,Wunderground v.1.15,2013-08-19 06:25:00,
2013-08-19 01:30:00,61.4,58.7,30.09,SW,214,0.0,0.0,91,0.00,,,0.00,Wunderground v.1.15,2013-08-19 06:30:00,
2013-08-19 01:40:00,61.4,58.7,30.09,SW,214,0.0,0.0,91,0.00,,,0.00,Wunderground v.1.15,2013-08-19 06:40:00,
2013-08-19 01:50:00,61.7,59.7,30.09,SW,214,0.0,0.0,93,0.00,,,0.00,Wunderground v.1.15,2013-08-19 06:50:00,
2013-08-19 01:55:00,61.7,59.7,30.09,SW,214,0.0,0.0,93,0.00,,,0.00,Wunderground v.1.15,2013-08-19 06:55:00,
2013-08-19 02:05:00,61.7,59.7,30.08,SW,214,0.0,0.0,93,0.00,,,0.00,Wunderground v.1.15,2013-08-19 07:05:00,
2013-08-19 02:15:00,61.4,59.1,30.09,SW,214,0.0,0.0,92,0.00,,,0.00,Wunderground v.1.15,2013-08-19 07:15:00,
2013-08-19 02:20:00,61.3,59.0,30.09,SW,214,0.0,0.0,92,0.00,,,0.00,Wunderground v.1.15,2013-08-19 07:20:00,
2013-08-19 02:30:00,61.0,58.7,30.09,SW,214,0.0,0.0,92,0.00,,,0.00,Wunderground v.1.15,2013-08-19 07:30:00,
2013-08-19 02:35:00,60.9,58.6,30.09,SW,214,0.0,0.0,92,0.00,,,0.00,Wunderground v.1.15,2013-08-19 07:35:00,
2013-08-19 02:45:00,60.8,58.8,30.09,SW,214,0.0,0.0,93,0.00,,,0.00,Wunderground v.1.15,2013-08-19 07:45:00,
2013-08-19 02:55:00,60.0,57.7,30.09,SW,214,0.0,0.0,92,0.00,,,0.00,Wunderground v.1.15,2013-08-19 07:55:00,
2013-08-19 03:00:00,60.1,58.1,30.09,SW,214,0.0,0.0,93,0.00,,,0.00,Wunderground v.1.15,2013-08-19 08:00:00,
2013-08-19 03:10:00,60.1,58.1,30.09,SW,214,0.0,0.0,93,0.00,,,0.00,Wunderground v.1.15,2013-08-19 08:10:00,
2013-08-19 03:15:00,60.1,58.1,30.09,SW,214,0.0,0.0,93,0.00,,,0.00,Wunderground v.1.15,2013-08-19 08:15:00,
2013-08-19 03:25:00,60.1,58.1,30.09,SW,214,0.0,0.0,93,0.00,,,0.00,Wunderground v.1.15,2013-08-19 08:25:00,
2013-08-19 03:30:00,60.1,58.1,30.09,SW,214,0.0,0.0,93,0.00,,,0.00,Wunderground v.1.15,2013-08-19 08:30:00,
2013-08-19 03:40:00,59.7,57.7,30.09,SW,214,0.0,0.0,93,0.00,,,0.00,Wunderground v.1.15,2013-08-19 08:40:00,
2013-08-19 03:50:00,59.6,57.6,30.09,SW,214,0.0,0.0,93,0.00,,,0.00,Wunderground v.1.15,2013-08-19 08:50:00,
2013-08-19 03:55:00,59.5,57.5,30.08,SW,214,0.0,0.0,93,0.00,,,0.00,Wunderground v.1.15,2013-08-19 08:55:00,
2013-08-19 04:05:00,59.3,57.3,30.08,SW,214,0.0,0.0,93,0.00,,,0.00,Wunderground v.1.15,2013-08-19 09:05:00,
2013-08-19 04:10:00,59.2,57.2,30.09,SW,214,0.0,0.0,93,0.00,,,0.00,Wunderground v.1.15,2013-08-19 09:10:00,
2013-08-19 04:20:00,59.4,57.7,30.09,SW,214,0.0,0.0,94,0.00,,,0.00,Wunderground v.1.15,2013-08-19 09:20:00,
2013-08-19 04:30:00,59.5,57.8,30.09,SW,214,0.0,0.0,94,0.00,,,0.00,Wunderground v.1.15,2013-08-19 09:30:00,
2013-08-19 04:40:00,59.3,57.6,30.09,SW,214,0.0,0.0,94,0.00,,,0.00,Wunderground v.1.15,2013-08-19 09:40:00,
2013-08-19 04:45:00,59.1,57.4,30.09,SW,214,0.0,0.0,94,0.00,,,0.00,Wunderground v.1.15,2013-08-19 09:45:00,
2013-08-19 04:55:00,59.0,57.3,30.09,SW,214,0.0,0.0,94,0.00,,,0.00,Wunderground v.1.15,2013-08-19 09:55:00,
2013-08-19 05:00:00,58.9,57.2,30.09,SW,214,0.0,0.0,94,0.00,,,0.00,Wunderground v.1.15,2013-08-19 10:00:00,
2013-08-19 05:10:00,58.6,56.9,30.09,SW,214,0.0,0.0,94,0.00,,,0.00,Wunderground v.1.15,2013-08-19 10:10:00,
2013-08-19 05:20:00,58.8,57.4,30.09,SW,214,0.0,0.0,95,0.00,,,0.00,Wunderground v.1.15,2013-08-19 10:20:00,
2013-08-19 05:25:00,58.7,57.0,30.10,SW,214,0.0,0.0,94,0.00,,,0.00,Wunderground v.1.15,2013-08-19 10:25:00,
2013-08-19 05:35:00,58.4,56.7,30.10,SW,214,0.0,0.0,94,0.00,,,0.00,Wunderground v.1.15,2013-08-19 10:35:00,
2013-08-19 05:45:00,58.5,57.1,30.10,SW,214,0.0,0.0,95,0.00,,,0.00,Wunderground v.1.15,2013-08-19 10:45:00,
2013-08-19 05:50:00,58.7,57.3,30.10,SW,214,0.0,0.0,95,0.00,,,0.00,Wunderground v.1.15,2013-08-19 10:50:00,
2013-08-19 06:00:00,58.7,57.3,30.10,SW,214,0.0,0.0,95,0.00,,,0.00,Wunderground v.1.15,2013-08-19 11:00:00,
2013-08-19 06:10:00,58.6,57.2,30.10,SW,214,0.0,0.0,95,0.00,,,0.00,Wunderground v.1.15,2013-08-19 11:10:00,
2013-08-19 06:15:00,58.7,57.3,30.10,SW,214,0.0,0.0,95,0.00,,,0.00,Wunderground v.1.15,2013-08-19 11:15:00,
2013-08-19 06:25:00,58.8,57.4,30.11,SW,214,0.0,0.0,95,0.00,,,0.01,Wunderground v.1.15,2013-08-19 11:25:00,
2013-08-19 06:30:00,58.8,57.4,30.11,SW,214,0.0,0.0,95,0.00,,,0.01,Wunderground v.1.15,2013-08-19 11:30:00,
2013-08-19 06:40:00,58.8,57.4,30.11,SW,214,0.0,0.0,95,0.00,,,0.01,Wunderground v.1.15,2013-08-19 11:40:00,
2013-08-19 06:50:00,59.0,57.6,30.11,SW,214,0.0,0.0,95,0.00,,,0.01,Wunderground v.1.15,2013-08-19 11:50:00,
2013-08-19 06:55:00,59.1,58.0,30.11,SW,214,0.0,0.0,96,0.00,,,0.01,Wunderground v.1.15,2013-08-19 11:55:00,
2013-08-19 07:05:00,59.7,58.6,30.11,SW,214,0.0,0.0,96,0.00,,,0.01,Wunderground v.1.15,2013-08-19 12:05:00,
2013-08-19 07:10:00,60.2,59.1,30.11,SW,214,0.0,0.0,96,0.00,,,0.01,Wunderground v.1.15,2013-08-19 12:10:00,
2013-08-19 07:20:00,61.1,60.0,30.11,SW,214,0.0,0.0,96,0.00,,,0.01,Wunderground v.1.15,2013-08-19 12:20:00,
2013-08-19 07:25:00,61.6,60.7,30.11,SW,214,0.0,0.0,97,0.00,,,0.01,Wunderground v.1.15,2013-08-19 12:25:00,
2013-08-19 07:35:00,62.4,61.2,30.11,SW,214,0.0,1.0,96,0.00,,,0.01,Wunderground v.1.15,2013-08-19 12:35:00,
2013-08-19 07:45:00,63.1,61.9,30.11,SW,214,0.0,1.0,96,0.00,,,0.01,Wunderground v.1.15,2013-08-19 12:45:00,
2013-08-19 07:55:00,63.8,62.3,30.11,SW,214,0.0,1.0,95,0.00,,,0.01,Wunderground v.1.15,2013-08-19 12:55:00,
2013-08-19 08:05:00,64.7,61.4,30.11,SW,214,1.0,2.0,89,0.00,,,0.01,Wunderground v.1.15,2013-08-19 13:05:00,
2013-08-19 08:15:00,65.8,61.5,30.11,SW,214,1.0,2.0,86,0.00,,,0.01,Wunderground v.1.15,2013-08-19 13:15:00,
2013-08-19 08:25:00,67.0,62.0,30.11,SW,214,1.0,1.0,84,0.00,,,0.01,Wunderground v.1.15,2013-08-19 13:25:00,
2013-08-19 08:30:00,67.6,61.2,30.11,SW,214,1.0,1.0,80,0.00,,,0.01,Wunderground v.1.15,2013-08-19 13:30:00,
2013-08-19 08:40:00,69.0,61.9,30.11,SW,214,1.0,1.0,78,0.00,,,0.01,Wunderground v.1.15,2013-08-19 13:40:00,
2013-08-19 08:45:00,69.6,61.3,30.11,SW,214,1.0,1.0,75,0.00,,,0.01,Wunderground v.1.15,2013-08-19 13:45:00,
2013-08-19 08:55:00,70.8,62.5,30.11,SW,214,0.0,1.0,75,0.00,,,0.01,Wunderground v.1.15,2013-08-19 13:55:00,
2013-08-19 09:05:00,72.2,63.1,30.11,SW,214,0.0,1.0,73,0.00,,,0.01,Wunderground v.1.15,2013-08-19 14:05:00,
2013-08-19 09:10:00,72.8,62.8,30.11,SW,214,0.0,0.0,71,0.00,,,0.01,Wunderground v.1.15,2013-08-19 14:10:00,
2013-08-19 09:20:00,73.8,64.2,30.11,SSW,194,0.0,1.0,72,0.00,,,0.01,Wunderground v.1.15,2013-08-19 14:20:00,
2013-08-19 09:25:00,74.6,63.8,30.11,SSW,194,0.0,1.0,69,0.00,,,0.01,Wunderground v.1.15,2013-08-19 14:25:00,
2013-08-19 09:35:00,75.9,64.6,30.11,SSW,194,0.0,0.0,68,0.00,,,0.01,Wunderground v.1.15,2013-08-19 14:35:00,
2013-08-19 09:40:00,76.5,64.3,30.11,SSW,194,1.0,1.0,66,0.00,,,0.01,Wunderground v.1.15,2013-08-19 14:40:00,
2013-08-19 09:50:00,77.5,64.8,30.11,South,188,1.0,1.0,65,0.00,,,0.01,Wunderground v.1.15,2013-08-19 14:50:00,
2013-08-19 10:00:00,78.6,65.4,30.11,South,188,1.0,1.0,64,0.00,,,0.01,Wunderground v.1.15,2013-08-19 15:00:00,
2013-08-19 10:10:00,79.3,65.6,30.11,South,188,0.0,0.0,63,0.00,,,0.01,Wunderground v.1.15,2013-08-19 15:10:00,
2013-08-19 10:20:00,79.7,66.4,30.11,SW,233,0.0,0.0,64,0.00,,,0.01,Wunderground v.1.15,2013-08-19 15:20:00,
2013-08-19 10:30:00,80.2,66.5,30.10,SW,233,0.0,0.0,63,0.00,,,0.01,Wunderground v.1.15,2013-08-19 15:30:00,
2013-08-19 10:35:00,80.0,65.8,30.10,West,274,1.0,1.0,62,0.00,,,0.01,Wunderground v.1.15,2013-08-19 15:35:00,
2013-08-19 10:45:00,79.7,66.9,30.10,West,272,0.0,1.0,65,0.00,,,0.01,Wunderground v.1.15,2013-08-19 15:45:00,
2013-08-19 10:55:00,80.2,66.5,30.10,West,267,1.0,1.0,63,0.00,,,0.01,Wunderground v.1.15,2013-08-19 15:55:00,
2013-08-19 11:00:00,80.3,65.6,30.10,West,267,0.0,0.0,61,0.00,,,0.01,Wunderground v.1.15,2013-08-19 16:00:00,
2013-08-19 11:10:00,80.1,66.4,30.10,West,264,1.0,1.0,63,0.00,,,0.01,Wunderground v.1.15,2013-08-19 16:10:00,
2013-08-19 11:15:00,80.0,66.7,30.10,West,264,1.0,1.0,64,0.00,,,0.01,Wunderground v.1.15,2013-08-19 16:15:00,
2013-08-19 11:25:00,80.4,66.6,30.10,SSW,200,1.0,2.0,63,0.00,,,0.01,Wunderground v.1.15,2013-08-19 16:25:00,
2013-08-19 11:30:00,80.5,65.8,30.10,SSW,203,1.0,1.0,61,0.00,,,0.01,Wunderground v.1.15,2013-08-19 16:30:00,
2013-08-19 11:40:00,81.2,67.4,30.10,WSW,247,1.0,1.0,63,0.00,,,0.01,Wunderground v.1.15,2013-08-19 16:40:00,
2013-08-19 11:45:00,81.6,66.4,30.10,WSW,247,0.0,1.0,60,0.00,,,0.01,Wunderground v.1.15,2013-08-19 16:45:00,
2013-08-19 11:55:00,80.4,65.2,30.10,NNW,331,1.0,1.0,60,0.00,,,0.01,Wunderground v.1.15,2013-08-19 16:55:00,
2013-08-19 12:05:00,80.6,65.4,30.09,West,259,0.0,1.0,60,0.00,,,0.01,Wunderground v.1.15,2013-08-19 17:05:00,
2013-08-19 12:15:00,81.4,66.7,30.09,WNW,290,0.0,0.0,61,0.00,,,0.01,Wunderground v.1.15,2013-08-19 17:15:00,
2013-08-19 12:25:00,82.3,66.0,30.09,SSW,194,1.0,4.0,58,0.00,,,0.01,Wunderground v.1.15,2013-08-19 17:25:00,
2013-08-19 12:35:00,83.2,65.4,30.09,WSW,253,1.0,4.0,55,0.00,,,0.01,Wunderground v.1.15,2013-08-19 17:35:00,
2013-08-19 12:45:00,82.5,65.7,30.08,WSW,253,0.0,1.0,57,0.00,,,0.01,Wunderground v.1.15,2013-08-19 17:45:00,
2013-08-19 12:50:00,82.5,65.7,30.08,SSE,163,1.0,1.0,57,0.00,,,0.01,Wunderground v.1.15,2013-08-19 17:50:00,
2013-08-19 13:00:00,82.9,64.0,30.08,West,261,1.0,1.0,53,0.00,,,0.01,Wunderground v.1.15,2013-08-19 18:00:00,
2013-08-19 13:05:00,82.8,65.0,30.08,West,275,0.0,1.0,55,0.00,,,0.01,Wunderground v.1.15,2013-08-19 18:05:00,
2013-08-19 13:15:00,82.9,66.1,30.08,SSE,150,0.0,2.0,57,0.00,,,0.01,Wunderground v.1.15,2013-08-19 18:15:00,
2013-08-19 13:25:00,82.6,65.3,30.07,SSE,150,0.0,0.0,56,0.00,,,0.01,Wunderground v.1.15,2013-08-19 18:25:00,
2013-08-19 13:30:00,82.8,65.0,30.07,SSE,150,1.0,1.0,55,0.00,,,0.01,Wunderground v.1.15,2013-08-19 18:30:00,
2013-08-19 13:40:00,83.6,65.7,30.07,SSE,150,1.0,1.0,55,0.00,,,0.01,Wunderground v.1.15,2013-08-19 18:40:00,
2013-08-19 13:50:00,84.0,66.1,30.07,SSE,155,1.0,4.0,55,0.00,,,0.01,Wunderground v.1.15,2013-08-19 18:50:00,
2013-08-19 13:55:00,83.8,65.9,30.07,SSE,148,2.0,4.0,55,0.00,,,0.01,Wunderground v.1.15,2013-08-19 18:55:00,
2013-08-19 14:05:00,84.9,67.5,30.07,SW,235,1.0,5.0,56,0.00,,,0.01,Wunderground v.1.15,2013-08-19 19:05:00,
2013-08-19 14:15:00,85.6,66.5,30.06,South,187,1.0,2.0,53,0.00,,,0.01,Wunderground v.1.15,2013-08-19 19:15:00,
2013-08-19 14:20:00,86.0,67.4,30.06,South,189,0.0,0.0,54,0.00,,,0.01,Wunderground v.1.15,2013-08-19 19:20:00,
2013-08-19 14:30:00,85.2,67.2,30.06,SSE,161,2.0,2.0,55,0.00,,,0.01,Wunderground v.1.15,2013-08-19 19:30:00,
2013-08-19 14:35:00,84.8,65.2,30.06,SSE,157,2.0,2.0,52,0.00,,,0.01,Wunderground v.1.15,2013-08-19 19:35:00,
2013-08-19 14:45:00,83.7,67.4,30.06,SSE,155,3.0,3.0,58,0.00,,,0.01,Wunderground v.1.15,2013-08-19 19:45:00,
2013-08-19 14:55:00,84.5,64.9,30.06,SSW,200,2.0,3.0,52,0.00,,,0.01,Wunderground v.1.15,2013-08-19 19:55:00,
2013-08-19 15:00:00,85.1,67.1,30.05,SSW,200,2.0,2.0,55,0.00,,,0.01,Wunderground v.1.15,2013-08-19 20:00:00,
2013-08-19 15:10:00,84.6,66.1,30.05,SSE,148,2.0,7.0,54,0.00,,,0.01,Wunderground v.1.15,2013-08-19 20:10:00,
2013-08-19 15:15:00,84.8,67.9,30.05,SSE,161,2.0,7.0,57,0.00,,,0.01,Wunderground v.1.15,2013-08-19 20:15:00,
2013-08-19 15:20:00,85.4,66.9,30.05,SSE,157,2.0,5.0,54,0.00,,,0.01,Wunderground v.1.15,2013-08-19 20:20:00,
2013-08-19 15:30:00,85.2,65.6,30.04,SSW,210,4.0,4.0,52,0.00,,,0.01,Wunderground v.1.15,2013-08-19 20:30:00,
2013-08-19 15:35:00,84.6,65.6,30.04,South,175,3.0,6.0,53,0.00,,,0.01,Wunderground v.1.15,2013-08-19 20:35:00,
2013-08-19 15:45:00,83.2,65.4,30.04,SSW,205,3.0,5.0,55,0.00,,,0.01,Wunderground v.1.15,2013-08-19 20:45:00,
2013-08-19 15:55:00,84.4,66.5,30.04,SW,228,2.0,6.0,55,0.00,,,0.01,Wunderground v.1.15,2013-08-19 20:55:00,
2013-08-19 16:00:00,84.7,67.3,30.04,South,187,3.0,3.0,56,0.00,,,0.01,Wunderground v.1.15,2013-08-19 21:00:00,
2013-08-19 16:10:00,84.6,65.6,30.04,SE,146,3.0,6.0,53,0.00,,,0.01,Wunderground v.1.15,2013-08-19 21:10:00,
2013-08-19 16:15:00,84.2,66.8,30.04,SSE,153,4.0,6.0,56,0.00,,,0.01,Wunderground v.1.15,2013-08-19 21:15:00,
2013-08-19 16:25:00,84.7,66.7,30.03,South,184,2.0,4.0,55,0.00,,,0.01,Wunderground v.1.15,2013-08-19 21:25:00,
2013-08-19 16:35:00,84.3,65.3,30.03,SSE,163,2.0,2.0,53,0.00,,,0.01,Wunderground v.1.15,2013-08-19 21:35:00,
2013-08-19 16:40:00,84.4,65.9,30.03,SSW,209,2.0,2.0,54,0.00,,,0.01,Wunderground v.1.15,2013-08-19 21:40:00,
2013-08-19 16:50:00,84.7,66.7,30.03,SSE,159,1.0,1.0,55,0.00,,,0.01,Wunderground v.1.15,2013-08-19 21:50:00,
2013-08-19 16:55:00,84.7,65.7,30.03,South,173,1.0,1.0,53,0.00,,,0.01,Wunderground v.1.15,2013-08-19 21:55:00,
2013-08-19 17:05:00,84.4,65.4,30.03,SSE,158,1.0,1.0,53,0.00,,,0.01,Wunderground v.1.15,2013-08-19 22:05:00,
2013-08-19 17:10:00,84.3,65.3,30.02,SSE,158,1.0,1.0,53,0.00,,,0.01,Wunderground v.1.15,2013-08-19 22:10:00,
2013-08-19 17:20:00,84.1,65.7,30.02,SSW,207,1.0,1.0,54,0.00,,,0.01,Wunderground v.1.15,2013-08-19 22:20:00,
2013-08-19 17:25:00,83.6,65.7,30.02,SSW,207,1.0,1.0,55,0.00,,,0.01,Wunderground v.1.15,2013-08-19 22:25:00,
2013-08-19 17:35:00,82.9,66.1,30.02,WSW,242,2.0,2.0,57,0.00,,,0.01,Wunderground v.1.15,2013-08-19 22:35:00,
2013-08-19 17:40:00,82.5,66.2,30.02,South,189,2.0,2.0,58,0.00,,,0.01,Wunderground v.1.15,2013-08-19 22:40:00,
2013-08-19 17:50:00,82.2,66.4,30.02,SSE,154,2.0,7.0,59,0.00,,,0.01,Wunderground v.1.15,2013-08-19 22:50:00,
2013-08-19 17:55:00,81.6,65.9,30.02,South,175,3.0,7.0,59,0.00,,,0.01,Wunderground v.1.15,2013-08-19 22:55:00,
2013-08-19 18:05:00,81.1,65.9,30.02,SSW,195,2.0,2.0,60,0.00,,,0.01,Wunderground v.1.15,2013-08-19 23:05:00,
2013-08-19 18:15:00,80.7,66.5,30.02,SSW,207,1.0,4.0,62,0.00,,,0.01,Wunderground v.1.15,2013-08-19 23:15:00,
2013-08-19 18:20:00,80.7,66.5,30.02,SSW,208,1.0,4.0,62,0.00,,,0.01,Wunderground v.1.15,2013-08-19 23:20:00,
2013-08-19 18:30:00,80.8,66.1,30.01,SSW,198,2.0,2.0,61,0.00,,,0.01,Wunderground v.1.15,2013-08-19 23:30:00,
2013-08-19 18:40:00,80.9,66.7,30.01,SSE,163,0.0,0.0,62,0.00,,,0.01,Wunderground v.1.15,2013-08-19 23:40:00,
2013-08-19 18:45:00,80.9,66.7,30.01,SSE,165,1.0,1.0,62,0.00,,,0.01,Wunderground v.1.15,2013-08-19 23:45:00,
2013-08-19 18:55:00,80.6,66.4,30.01,South,180,1.0,1.0,62,0.00,,,0.01,Wunderground v.1.15,2013-08-19 23:55:00,
2013-08-19 19:05:00,80.2,66.0,30.02,South,184,0.0,1.0,62,0.00,,,0.01,Wunderground v.1.15,2013-08-20 00:05:00,
2013-08-19 19:10:00,80.0,66.3,30.02,South,184,0.0,0.0,63,0.00,,,0.01,Wunderground v.1.15,2013-08-20 00:10:00,
2013-08-19 19:20:00,79.7,66.4,30.02,South,184,0.0,0.0,64,0.00,,,0.01,Wunderground v.1.15,2013-08-20 00:20:00,
2013-08-19 19:25:00,79.4,66.2,30.02,South,184,0.0,0.0,64,0.00,,,0.01,Wunderground v.1.15,2013-08-20 00:25:00,
2013-08-19 19:35:00,78.9,66.6,30.02,South,184,0.0,0.0,66,0.00,,,0.01,Wunderground v.1.15,2013-08-20 00:35:00,
2013-08-19 19:45:00,78.3,66.4,30.02,South,184,0.0,0.0,67,0.00,,,0.01,Wunderground v.1.15,2013-08-20 00:45:00,
2013-08-19 19:50:00,78.0,66.6,30.02,South,184,0.0,0.0,68,0.00,,,0.01,Wunderground v.1.15,2013-08-20 00:50:00,
2013-08-19 20:00:00,77.5,66.5,30.02,South,184,0.0,0.0,69,0.00,,,0.01,Wunderground v.1.15,2013-08-20 01:00:00,
2013-08-19 20:10:00,76.9,66.4,30.02,South,184,0.0,0.0,70,0.00,,,0.01,Wunderground v.1.15,2013-08-20 01:10:00,
2013-08-19 20:15:00,76.5,66.4,30.02,South,184,0.0,0.0,71,0.00,,,0.01,Wunderground v.1.15,2013-08-20 01:15:00,
2013-08-19 20:25:00,75.8,66.5,30.02,South,184,0.0,0.0,73,0.00,,,0.01,Wunderground v.1.15,2013-08-20 01:25:00,
2013-08-19 20:35:00,75.2,66.3,30.02,South,184,0.0,0.0,74,0.00,,,0.01,Wunderground v.1.15,2013-08-20 01:35:00,
2013-08-19 20:40:00,74.9,66.4,30.03,South,184,0.0,0.0,75,0.00,,,0.01,Wunderground v.1.15,2013-08-20 01:40:00,
2013-08-19 20:50:00,74.4,66.3,30.03,South,184,0.0,0.0,76,0.00,,,0.01,Wunderground v.1.15,2013-08-20 01:50:00,
2013-08-19 20:55:00,74.0,66.3,30.03,South,184,0.0,0.0,77,0.00,,,0.01,Wunderground v.1.15,2013-08-20 01:55:00,
2013-08-19 21:05:00,73.5,66.2,30.03,South,184,0.0,0.0,78,0.00,,,0.01,Wunderground v.1.15,2013-08-20 02:05:00,
2013-08-19 21:15:00,73.1,65.8,30.03,South,184,0.0,0.0,78,0.00,,,0.01,Wunderground v.1.15,2013-08-20 02:15:00,
2013-08-19 21:25:00,72.7,66.2,30.03,South,184,0.0,0.0,80,0.00,,,0.01,Wunderground v.1.15,2013-08-20 02:25:00,
2013-08-19 21:30:00,72.5,66.0,30.03,South,184,0.0,0.0,80,0.00,,,0.01,Wunderground v.1.15,2013-08-20 02:30:00,
2013-08-19 21:40:00,72.2,66.0,30.04,South,184,0.0,0.0,81,0.00,,,0.01,Wunderground v.1.15,2013-08-20 02:40:00,
2013-08-19 21:45:00,72.1,65.9,30.04,South,184,0.0,0.0,81,0.00,,,0.01,Wunderground v.1.15,2013-08-20 02:45:00,
2013-08-19 21:55:00,71.8,65.7,30.04,South,184,0.0,0.0,81,0.00,,,0.01,Wunderground v.1.15,2013-08-20 02:55:00,
2013-08-19 22:05:00,71.6,66.2,30.04,South,184,0.0,0.0,83,0.00,,,0.01,Wunderground v.1.15,2013-08-20 03:05:00,
2013-08-19 22:10:00,71.6,66.2,30.04,South,184,0.0,0.0,83,0.00,,,0.01,Wunderground v.1.15,2013-08-20 03:10:00,
2013-08-19 22:20:00,71.3,65.9,30.04,South,184,0.0,0.0,83,0.00,,,0.01,Wunderground v.1.15,2013-08-20 03:20:00,
2013-08-19 22:25:00,71.3,65.9,30.04,South,184,0.0,0.0,83,0.00,,,0.01,Wunderground v.1.15,2013-08-20 03:25:00,
2013-08-19 22:35:00,71.3,65.9,30.04,South,184,0.0,0.0,83,0.00,,,0.01,Wunderground v.1.15,2013-08-20 03:35:00,
2013-08-19 22:45:00,71.5,66.1,30.04,South,184,0.0,0.0,83,0.00,,,0.01,Wunderground v.1.15,2013-08-20 03:45:00,
2013-08-19 22:50:00,71.5,65.7,30.04,South,184,0.0,0.0,82,0.00,,,0.01,Wunderground v.1.15,2013-08-20 03:50:00,
2013-08-19 23:00:00,71.4,65.6,30.04,South,184,0.0,0.0,82,0.00,,,0.01,Wunderground v.1.15,2013-08-20 04:00:00,
2013-08-19 23:05:00,71.2,65.4,30.04,South,184,0.0,0.0,82,0.00,,,0.01,Wunderground v.1.15,2013-08-20 04:05:00,
2013-08-19 23:10:00,71.2,65.4,30.04,South,184,0.0,0.0,82,0.00,,,0.01,Wunderground v.1.15,2013-08-20 04:10:00,
2013-08-19 23:15:00,71.1,65.7,30.04,South,184,0.0,0.0,83,0.00,,,0.01,Wunderground v.1.15,2013-08-20 04:15:00,
2013-08-19 23:20:00,71.2,65.8,30.04,South,184,0.0,0.0,83,0.00,,,0.01,Wunderground v.1.15,2013-08-20 04:20:00,
2013-08-19 23:25:00,71.2,65.8,30.04,South,184,0.0,0.0,83,0.00,,,0.01,Wunderground v.1.15,2013-08-20 04:25:00,
2013-08-19 23:30:00,71.3,65.9,30.04,South,184,0.0,1.0,83,0.00,,,0.01,Wunderground v.1.15,2013-08-20 04:30:00,
2013-08-19 23:40:00,71.3,65.5,30.04,South,184,0.0,0.0,82,0.00,,,0.01,Wunderground v.1.15,2013-08-20 04:40:00,
2013-08-19 23:45:00,71.3,65.5,30.04,South,184,0.0,0.0,82,0.00,,,0.01,Wunderground v.1.15,2013-08-20 04:45:00,
2013-08-19 23:55:00,71.2,65.4,30.04,South,184,0.0,0.0,82,0.00,,,0.01,Wunderground v.1.15,2013-08-20 04:55:00,